Time;durP1;ratioP1;P1;durP2;ratioP2;P2;SDS_P1;SDS_P2;PMS_P1;PMS_P2;Temp;Humidity;BMP_temperature;BMP_pressure;BME280_temperature;BME280_humidity;BME280_pressure;Samples;Min_cycle;Max_cycle;Signal;HPM_P1;HPM_P2
2022/05/23 00:00:29;;;;;;;9.13;8.33;;;18.20;99.90;;;;;;5054669;28;20443;-68
2022/05/23 00:02:55;;;;;;;10.30;8.70;;;18.20;99.90;;;;;;5052638;28;20470;-68
2022/05/23 00:05:20;;;;;;;9.03;8.23;;;18.30;99.90;;;;;;5055102;28;20426;-68
2022/05/23 00:07:48;;;;;;;11.20;10.40;;;18.30;99.90;;;;;;5054597;28;20420;-72
2022/05/23 00:10:18;;;;;;;10.80;9.87;;;18.30;99.70;;;;;;5054784;28;20177;-67
2022/05/23 00:12:44;;;;;;;9.90;9.20;;;18.30;99.70;;;;;;5054996;28;20419;-68
2022/05/23 00:15:11;;;;;;;9.40;8.40;;;18.40;99.90;;;;;;5053980;28;20416;-67
2022/05/23 00:17:37;;;;;;;11.47;10.57;;;18.40;99.90;;;;;;5054555;28;20182;-67
2022/05/23 00:20:05;;;;;;;9.93;8.93;;;18.50;99.90;;;;;;5053468;28;20978;-67
2022/05/23 00:22:31;;;;;;;10.47;9.47;;;18.50;99.90;;;;;;5052414;28;20668;-68
2022/05/23 00:24:57;;;;;;;9.70;8.90;;;18.50;99.90;;;;;;5053190;28;20470;-67
2022/05/23 00:27:23;;;;;;;9.87;9.10;;;18.50;99.90;;;;;;5054442;28;20408;-68
2022/05/23 00:29:50;;;;;;;9.67;8.77;;;18.50;99.90;;;;;;5053413;28;20435;-74
2022/05/23 00:35:19;;;;;;;10.17;9.37;;;18.60;99.90;;;;;;5053850;28;20868;-67
2022/05/23 00:37:46;;;;;;;11.77;10.57;;;18.50;99.90;;;;;;5054330;28;20622;-67
2022/05/23 00:40:30;;;;;;;14.40;11.07;;;18.60;99.90;;;;;;5051370;28;20530;-68
2022/05/23 00:43:14;;;;;;;10.70;9.80;;;18.60;99.90;;;;;;5053525;28;20483;-68
2022/05/23 00:45:41;;;;;;;10.80;9.90;;;18.60;99.90;;;;;;5054082;28;20559;-67
2022/05/23 00:48:07;;;;;;;11.53;10.60;;;18.60;99.90;;;;;;5053028;28;20526;-68
2022/05/23 00:50:34;;;;;;;11.83;10.63;;;18.60;99.90;;;;;;5055024;28;20483;-67
2022/05/23 00:53:01;;;;;;;11.20;10.30;;;18.60;99.90;;;;;;5053129;28;20408;-68
2022/05/23 00:55:31;;;;;;;11.60;10.43;;;18.60;99.90;;;;;;5054137;28;20879;-68
2022/05/23 00:58:04;;;;;;;11.10;10.03;;;18.60;99.90;;;;;;5053250;28;20442;-68
2022/05/23 01:00:30;;;;;;;10.83;9.83;;;18.60;99.90;;;;;;5053738;28;20396;-68
2022/05/23 01:03:03;;;;;;;10.23;9.53;;;18.60;99.90;;;;;;5052174;28;21033;-68
2022/05/23 01:05:29;;;;;;;10.90;9.93;;;18.60;99.90;;;;;;5052470;28;20423;-67
2022/05/23 01:07:55;;;;;;;11.47;10.47;;;18.60;99.90;;;;;;5052869;28;20788;-68
2022/05/23 01:10:21;;;;;;;11.40;10.30;;;18.60;99.90;;;;;;5052085;28;20416;-67
2022/05/23 01:12:46;;;;;;;11.83;10.70;;;18.60;99.90;;;;;;5053083;28;20186;-68
2022/05/23 01:15:25;;;;;;;11.33;10.40;;;18.50;99.90;;;;;;5051158;28;20265;-68
2022/05/23 01:17:50;;;;;;;12.03;10.97;;;18.40;99.90;;;;;;5053086;28;20633;-73
2022/05/23 01:20:18;;;;;;;12.90;11.87;;;18.40;99.90;;;;;;5051918;28;20500;-68
2022/05/23 01:23:06;;;;;;;15.97;14.73;;;18.30;99.90;;;;;;5053472;28;20177;-68
2022/05/23 01:25:33;;;;;;;13.83;12.40;;;18.40;99.90;;;;;;5052159;28;20481;-68
2022/05/23 01:28:00;;;;;;;12.83;11.17;;;18.40;99.90;;;;;;5052846;28;20416;-68
2022/05/23 01:30:26;;;;;;;11.50;10.63;;;18.40;99.90;;;;;;5052789;28;20514;-68
2022/05/23 01:32:52;;;;;;;10.03;9.10;;;18.40;99.90;;;;;;5052995;28;20446;-74
2022/05/23 01:35:17;;;;;;;11.50;10.60;;;18.40;99.90;;;;;;5052951;28;20510;-68
2022/05/23 01:37:43;;;;;;;14.47;13.37;;;18.40;99.90;;;;;;5053013;28;20181;-68
2022/05/23 01:40:13;;;;;;;11.27;10.37;;;18.50;99.90;;;;;;5051361;28;20521;-68
2022/05/23 01:42:38;;;;;;;13.83;12.73;;;18.50;99.90;;;;;;5052743;28;20626;-68
2022/05/23 01:45:05;;;;;;;11.50;10.40;;;18.50;99.90;;;;;;5051916;28;20419;-68
2022/05/23 01:47:30;;;;;;;9.60;8.90;;;18.40;99.90;;;;;;5053037;28;20173;-68
2022/05/23 01:49:56;;;;;;;10.50;9.50;;;18.40;99.80;;;;;;5052142;28;20450;-74
2022/05/23 01:52:22;;;;;;;10.63;9.07;;;18.30;99.80;;;;;;5052753;28;20209;-68
2022/05/23 01:54:48;;;;;;;10.70;9.80;;;18.30;99.90;;;;;;5060165;28;20427;-68
2022/05/23 01:57:14;;;;;;;10.03;9.20;;;18.30;99.90;;;;;;5063121;28;20679;-67
2022/05/23 02:02:25;;;;;;;10.17;9.33;;;18.30;99.90;;;;;;5052412;28;20178;-67
2022/05/23 02:04:54;;;;;;;11.13;10.23;;;18.30;99.90;;;;;;5050757;28;20475;-68
2022/05/23 02:07:19;;;;;;;10.00;9.03;;;18.40;99.90;;;;;;5051836;28;20412;-68
2022/05/23 02:09:46;;;;;;;10.20;9.30;;;18.40;99.90;;;;;;5050543;28;20462;-68
2022/05/23 02:12:13;;;;;;;8.60;7.90;;;18.40;99.90;;;;;;5051584;28;20280;-67
2022/05/23 02:14:39;;;;;;;9.10;8.40;;;18.40;99.90;;;;;;5052523;28;20415;-67
2022/05/23 02:17:09;;;;;;;8.90;8.20;;;18.30;99.90;;;;;;5051562;28;20413;-68
2022/05/23 02:19:36;;;;;;;9.27;8.57;;;18.30;99.90;;;;;;5052656;28;20610;-68
2022/05/23 02:22:02;;;;;;;9.30;8.60;;;18.30;99.90;;;;;;5033630;28;20494;-68
2022/05/23 02:24:28;;;;;;;8.67;7.97;;;18.40;99.90;;;;;;5051155;28;20421;-67
2022/05/23 02:26:54;;;;;;;9.30;8.50;;;18.40;99.90;;;;;;5052027;28;20937;-68
2022/05/23 02:29:19;;;;;;;9.47;8.70;;;18.40;99.90;;;;;;5051810;28;20208;-67
2022/05/23 02:31:48;;;;;;;9.10;8.20;;;18.40;99.90;;;;;;5051731;28;20214;-68
2022/05/23 02:34:15;;;;;;;10.00;9.03;;;18.40;99.90;;;;;;5051516;28;20530;-68
2022/05/23 02:36:41;;;;;;;10.60;9.40;;;18.50;99.90;;;;;;5051976;28;20908;-68
2022/05/23 02:39:07;;;;;;;9.80;9.00;;;18.40;99.90;;;;;;5050104;28;20418;-68
2022/05/23 02:41:33;;;;;;;12.00;11.00;;;18.40;99.90;;;;;;5050548;28;20436;-68
2022/05/23 02:44:00;;;;;;;10.60;9.63;;;18.30;99.90;;;;;;5050135;28;20231;-73
2022/05/23 02:46:25;;;;;;;11.03;10.03;;;18.30;99.90;;;;;;5052392;28;20493;-68
2022/05/23 02:48:51;;;;;;;10.63;9.83;;;18.30;99.90;;;;;;5050689;28;20908;-68
2022/05/23 02:51:17;;;;;;;12.20;10.30;;;18.30;99.90;;;;;;5049955;28;20372;-68
2022/05/23 02:53:42;;;;;;;10.07;9.20;;;18.30;99.90;;;;;;5050408;28;20178;-68
2022/05/23 02:56:08;;;;;;;10.13;9.20;;;18.30;99.90;;;;;;5050970;28;20173;-68
2022/05/23 02:58:34;;;;;;;10.17;9.27;;;18.40;99.90;;;;;;5051271;28;20178;-68
2022/05/23 03:00:59;;;;;;;11.70;9.67;;;18.40;99.90;;;;;;5050385;28;20618;-73
2022/05/23 03:03:25;;;;;;;10.97;10.17;;;18.40;99.90;;;;;;5051172;28;20181;-67
2022/05/23 03:05:51;;;;;;;11.53;10.53;;;18.40;99.90;;;;;;5051772;28;20660;-68
2022/05/23 03:08:25;;;;;;;12.00;10.90;;;18.40;99.90;;;;;;5051125;28;20170;-68
2022/05/23 03:10:54;;;;;;;11.47;10.47;;;18.40;99.90;;;;;;5051772;28;20209;-68
2022/05/23 03:13:20;;;;;;;17.87;11.50;;;18.40;99.90;;;;;;5051066;28;20404;-68
2022/05/23 03:15:46;;;;;;;11.87;10.60;;;18.40;99.90;;;;;;5051916;28;20443;-67
2022/05/23 03:18:12;;;;;;;12.20;11.10;;;18.40;99.90;;;;;;5049779;28;20621;-68
2022/05/23 03:20:38;;;;;;;11.43;10.53;;;18.50;99.90;;;;;;5050304;28;20475;-68
2022/05/23 03:28:34;;;;;;;11.87;10.87;;;18.40;99.90;;;;;;5051738;28;20480;-68
2022/05/23 03:31:00;;;;;;;13.87;12.87;;;18.50;99.90;;;;;;5050621;28;20855;-73
2022/05/23 03:33:27;;;;;;;11.10;10.10;;;18.50;99.90;;;;;;5051449;28;20458;-68
2022/05/23 03:35:52;;;;;;;11.33;10.23;;;18.50;99.90;;;;;;5051339;28;20638;-68
2022/05/23 03:38:18;;;;;;;11.10;10.20;;;18.50;99.90;;;;;;5053889;28;20396;-68
2022/05/23 03:40:44;;;;;;;13.27;12.03;;;18.50;99.90;;;;;;5055132;28;20454;-68
2022/05/23 03:43:11;;;;;;;10.73;9.93;;;18.60;99.90;;;;;;5054274;28;20626;-68
2022/05/23 03:45:37;;;;;;;10.87;9.97;;;18.60;99.90;;;;;;5054047;28;20485;-68
2022/05/23 03:48:03;;;;;;;10.60;9.80;;;18.60;99.90;;;;;;5052823;28;20896;-68
2022/05/23 03:50:30;;;;;;;11.10;10.20;;;18.60;99.90;;;;;;5054974;28;20485;-68
2022/05/23 03:52:57;;;;;;;9.60;8.80;;;18.60;99.90;;;;;;5055419;28;20404;-68
2022/05/23 03:55:23;;;;;;;9.50;8.50;;;18.60;99.90;;;;;;5054803;28;20447;-68
2022/05/23 03:57:49;;;;;;;9.50;8.70;;;18.60;99.90;;;;;;5055337;28;20792;-68
2022/05/23 04:00:16;;;;;;;10.23;9.43;;;18.60;99.90;;;;;;5054971;28;20412;-68
2022/05/23 04:02:42;;;;;;;10.00;9.20;;;18.70;99.90;;;;;;5055251;28;20626;-68
2022/05/23 04:05:10;;;;;;;8.87;8.17;;;18.70;99.90;;;;;;5053852;28;20435;-68
2022/05/23 04:07:38;;;;;;;10.57;9.70;;;18.60;99.90;;;;;;5055154;28;20435;-68
2022/05/23 04:10:10;;;;;;;9.20;8.50;;;18.60;99.90;;;;;;5053972;28;20470;-69
2022/05/23 04:12:36;;;;;;;10.47;9.60;;;18.70;99.90;;;;;;5056876;28;20456;-68
2022/05/23 04:15:04;;;;;;;10.13;9.33;;;18.70;99.90;;;;;;5054451;28;20408;-69
2022/05/23 04:17:30;;;;;;;9.77;8.87;;;18.70;99.90;;;;;;5054926;28;20469;-68
2022/05/23 04:19:56;;;;;;;10.50;9.50;;;18.70;99.90;;;;;;5055104;28;20420;-67
2022/05/23 04:22:22;;;;;;;10.40;9.50;;;18.70;99.90;;;;;;5054640;28;20451;-68
2022/05/23 04:24:47;;;;;;;11.23;10.40;;;18.70;99.90;;;;;;5054828;28;20629;-68
2022/05/23 04:27:13;;;;;;;10.80;10.10;;;18.70;99.90;;;;;;5054192;28;20189;-68
2022/05/23 04:29:39;;;;;;;10.20;9.50;;;18.80;99.90;;;;;;5054810;28;20185;-68
2022/05/23 04:35:12;;;;;;;11.37;10.00;;;18.80;99.90;;;;;;5054755;28;20684;-68
2022/05/23 04:37:35;;;;;;;9.30;8.67;;;18.80;99.90;;;;;;5054796;28;20420;-67
2022/05/23 04:40:00;;;;;;;9.77;8.97;;;18.80;99.90;;;;;;5053640;28;20463;-67
2022/05/23 04:42:26;;;;;;;10.57;9.63;;;18.80;99.90;;;;;;5053726;28;20506;-68
2022/05/23 04:44:52;;;;;;;10.47;9.50;;;18.80;99.90;;;;;;5054172;28;20209;-69
2022/05/23 04:50:03;;;;;;;11.07;10.07;;;18.80;99.90;;;;;;5053867;28;20214;-68
2022/05/23 04:52:29;;;;;;;10.30;9.50;;;18.80;99.90;;;;;;5053091;28;20462;-68
2022/05/23 04:54:55;;;;;;;11.00;10.00;;;18.80;99.90;;;;;;5054120;28;20420;-68
2022/05/23 04:57:21;;;;;;;10.87;9.97;;;18.80;99.90;;;;;;5053943;28;20428;-68
2022/05/23 04:59:47;;;;;;;10.87;9.97;;;18.90;99.90;;;;;;5054208;28;20194;-68
2022/05/23 05:02:14;;;;;;;10.03;9.20;;;18.90;99.90;;;;;;5053570;28;20235;-68
2022/05/23 05:04:39;;;;;;;10.93;9.93;;;19.00;99.90;;;;;;5054028;28;20919;-68
2022/05/23 05:07:05;;;;;;;12.93;11.93;;;18.90;99.90;;;;;;5053500;28;20420;-68
2022/05/23 05:09:31;;;;;;;11.70;10.53;;;19.00;99.90;;;;;;5053160;28;20185;-68
2022/05/23 05:11:57;;;;;;;14.00;12.90;;;19.00;99.90;;;;;;5053601;28;20472;-68
2022/05/23 05:14:23;;;;;;;11.10;10.30;;;19.00;99.90;;;;;;5052117;28;20874;-68
2022/05/23 05:16:49;;;;;;;12.03;11.00;;;19.10;99.90;;;;;;5051127;28;20221;-68
2022/05/23 05:19:15;;;;;;;12.03;11.03;;;19.10;99.90;;;;;;5057322;28;20186;-68
2022/05/23 05:21:40;;;;;;;10.33;9.60;;;19.20;99.90;;;;;;5052414;28;20236;-68
2022/05/23 05:24:06;;;;;;;12.97;11.83;;;19.20;99.90;;;;;;5053128;28;20938;-69
2022/05/23 05:26:32;;;;;;;10.80;9.80;;;19.20;99.90;;;;;;5053748;28;20227;-68
2022/05/23 05:28:58;;;;;;;11.93;11.10;;;19.30;99.90;;;;;;5053486;28;20496;-68
2022/05/23 05:31:34;;;;;;;11.00;10.20;;;19.30;99.90;;;;;;5058550;28;20204;-71
2022/05/23 05:34:20;;;;;;;10.83;9.73;;;19.30;99.90;;;;;;5053507;28;20189;-69
2022/05/23 05:36:49;;;;;;;10.70;9.73;;;19.40;99.90;;;;;;5056066;28;20538;-71
2022/05/23 05:39:19;;;;;;;10.37;9.47;;;19.50;99.90;;;;;;5071818;28;20416;-71
2022/05/23 05:41:54;;;;;;;10.87;9.97;;;19.70;99.90;;;;;;5062276;28;20447;-69
2022/05/23 05:44:25;;;;;;;9.03;8.23;;;19.90;99.90;;;;;;5054214;28;20437;-70
2022/05/23 05:46:55;;;;;;;10.77;9.70;;;20.00;99.90;;;;;;5055328;28;20439;-70
2022/05/23 05:49:25;;;;;;;8.13;7.33;;;20.10;99.90;;;;;;5052989;28;20523;-70
2022/05/23 05:51:54;;;;;;;8.10;7.40;;;20.10;99.90;;;;;;5052500;28;21062;-70
2022/05/23 05:54:23;;;;;;;9.27;8.53;;;20.10;99.90;;;;;;5051312;28;20404;-70
2022/05/23 05:56:53;;;;;;;7.67;6.87;;;20.10;99.90;;;;;;5051466;28;20424;-70
2022/05/23 05:59:20;;;;;;;10.13;9.33;;;20.00;99.50;;;;;;5053130;28;20963;-70
2022/05/23 06:01:46;;;;;;;8.73;7.93;;;20.00;99.90;;;;;;5052502;28;20428;-70
2022/05/23 06:04:11;;;;;;;7.47;6.87;;;20.00;97.90;;;;;;5052306;28;20416;-71
2022/05/23 06:12:06;;;;;;;6.53;5.80;;;19.90;97.40;;;;;;5032246;28;20459;-70
2022/05/23 06:14:33;;;;;;;8.67;6.20;;;19.90;96.10;;;;;;5031516;28;20425;-70
2022/05/23 06:16:58;;;;;;;6.90;6.20;;;19.90;95.70;;;;;;5048977;28;20920;-70
2022/05/23 06:19:24;;;;;;;7.43;6.70;;;19.90;95.60;;;;;;5055630;28;20514;-70
2022/05/23 06:21:50;;;;;;;6.20;5.80;;;19.90;95.30;;;;;;5067130;28;20320;-70
2022/05/23 06:24:15;;;;;;;7.90;7.20;;;20.00;94.80;;;;;;5052096;28;20193;-70
2022/05/23 06:26:41;;;;;;;6.43;5.73;;;20.00;94.60;;;;;;5050991;28;20186;-69
2022/05/23 06:29:07;;;;;;;5.77;5.27;;;20.00;94.10;;;;;;5054527;28;20182;-70
2022/05/23 06:31:33;;;;;;;5.83;5.43;;;20.00;94.00;;;;;;5048322;28;20243;-70
2022/05/23 06:33:59;;;;;;;8.63;8.03;;;20.00;94.00;;;;;;5051430;28;20224;-70
2022/05/23 06:36:25;;;;;;;6.50;6.07;;;20.10;93.50;;;;;;5052471;28;20436;-70
2022/05/23 06:38:51;;;;;;;7.07;6.37;;;20.10;93.60;;;;;;5057176;28;20186;-70
2022/05/23 06:41:16;;;;;;;6.80;6.33;;;20.20;94.60;;;;;;5051056;28;20193;-70
2022/05/23 06:43:43;;;;;;;6.50;6.10;;;20.30;95.40;;;;;;5055349;28;20177;-70
2022/05/23 06:46:12;;;;;;;6.23;5.67;;;20.30;95.20;;;;;;5052395;28;20173;-70
2022/05/23 06:48:37;;;;;;;7.10;6.50;;;20.40;93.90;;;;;;5052479;28;20431;-70
2022/05/23 06:51:04;;;;;;;7.27;6.47;;;20.40;95.00;;;;;;5052423;28;20459;-70
2022/05/23 06:53:30;;;;;;;6.27;5.87;;;20.50;94.70;;;;;;5051658;28;20272;-70
2022/05/23 06:55:56;;;;;;;6.53;5.93;;;20.50;95.00;;;;;;5052134;28;20408;-70
2022/05/23 06:58:23;;;;;;;7.10;6.57;;;20.60;95.10;;;;;;5051551;28;20447;-70
2022/05/23 07:00:49;;;;;;;7.43;6.33;;;20.70;95.80;;;;;;5052343;28;20451;-70
2022/05/23 07:03:15;;;;;;;7.50;6.90;;;20.60;92.80;;;;;;5050683;28;20467;-71
2022/05/23 07:13:56;;;;;;;7.37;6.70;;;20.90;93.50;;;;;;5056240;28;20400;-70
2022/05/23 07:16:22;;;;;;;5.30;4.90;;;21.10;92.80;;;;;;5055869;28;20442;-70
2022/05/23 07:18:48;;;;;;;5.50;5.10;;;21.10;91.50;;;;;;5056364;28;20420;-70
2022/05/23 07:21:15;;;;;;;5.30;4.90;;;21.20;91.50;;;;;;5055455;28;20472;-71
2022/05/23 07:23:41;;;;;;;7.60;6.90;;;21.20;91.40;;;;;;5056058;28;20212;-70
2022/05/23 07:26:15;;;;;;;7.87;7.27;;;21.20;90.90;;;;;;5055868;28;20891;-71
2022/05/23 07:28:43;;;;;;;7.23;6.73;;;21.20;91.00;;;;;;5036088;28;20826;-70
2022/05/23 07:31:11;;;;;;;5.97;5.57;;;21.20;90.70;;;;;;5036972;28;20527;-70
2022/05/23 07:33:39;;;;;;;5.60;5.20;;;21.30;90.60;;;;;;5055273;28;20408;-71
2022/05/23 07:36:06;;;;;;;5.10;4.80;;;21.30;90.90;;;;;;5055790;28;20412;-71
2022/05/23 07:38:32;;;;;;;6.77;6.47;;;21.40;91.20;;;;;;5055162;28;20404;-71
2022/05/23 07:40:59;;;;;;;7.33;6.83;;;21.50;91.30;;;;;;5053637;28;20431;-70
2022/05/23 07:43:25;;;;;;;7.17;6.43;;;21.60;91.00;;;;;;5059413;28;20668;-71
2022/05/23 07:45:53;;;;;;;6.57;5.97;;;21.60;92.00;;;;;;5055200;28;20404;-71
2022/05/23 07:48:19;;;;;;;5.70;5.40;;;21.70;92.30;;;;;;5054597;28;20416;-71
2022/05/23 07:50:45;;;;;;;6.43;5.93;;;21.70;90.80;;;;;;5054795;28;20447;-71
2022/05/23 08:01:27;;;;;;;6.40;5.80;;;21.60;90.90;;;;;;5054140;28;20792;-70
2022/05/23 08:03:54;;;;;;;6.57;6.17;;;21.60;91.10;;;;;;5054887;28;20423;-72
2022/05/23 08:06:20;;;;;;;5.87;5.27;;;21.60;90.40;;;;;;5053623;28;20424;-71
2022/05/23 08:08:46;;;;;;;5.47;5.17;;;21.60;89.60;;;;;;5055324;28;20465;-71
2022/05/23 08:11:13;;;;;;;7.80;7.40;;;21.60;89.30;;;;;;5053543;28;20486;-72
2022/05/23 08:13:41;;;;;;;5.10;4.80;;;21.50;90.10;;;;;;5054359;28;20432;-71
2022/05/23 08:16:08;;;;;;;6.43;6.13;;;21.50;90.00;;;;;;5052577;28;20936;-72
2022/05/23 08:18:34;;;;;;;8.03;7.63;;;21.40;90.20;;;;;;5059594;28;20794;-72
2022/05/23 08:21:00;;;;;;;6.80;6.30;;;21.50;90.70;;;;;;5065916;28;20555;-72
2022/05/23 08:23:26;;;;;;;5.13;4.83;;;21.50;90.50;;;;;;5052223;28;20169;-70
2022/05/23 08:25:51;;;;;;;4.70;4.40;;;21.50;90.30;;;;;;5056402;28;20798;-70
2022/05/23 08:28:19;;;;;;;4.80;4.50;;;21.50;90.70;;;;;;5053651;28;20222;-72
2022/05/23 08:30:45;;;;;;;5.00;4.70;;;21.60;90.40;;;;;;5057810;28;20484;-70
2022/05/23 08:33:11;;;;;;;5.87;5.47;;;21.70;91.00;;;;;;5074260;28;20431;-70
2022/05/23 08:35:37;;;;;;;6.63;6.13;;;21.80;91.40;;;;;;5073516;28;20472;-70
2022/05/23 08:38:04;;;;;;;8.83;8.33;;;21.80;90.80;;;;;;5074719;28;20412;-70
2022/05/23 08:41:01;;;;;;;5.27;4.87;;;21.90;91.10;;;;;;5073812;28;20790;-70
2022/05/23 08:44:05;;;;;;;5.90;5.40;;;21.90;91.20;;;;;;5073993;28;20435;-70
2022/05/23 08:46:44;;;;;;;7.07;6.67;;;22.00;91.10;;;;;;5074244;28;20453;-70
2022/05/23 08:49:18;;;;;;;5.43;5.10;;;22.00;90.80;;;;;;5074430;28;20427;-70
2022/05/23 08:51:57;;;;;;;5.77;5.27;;;22.20;90.20;;;;;;5074510;28;20447;-70
2022/05/23 08:54:28;;;;;;;6.53;6.03;;;22.20;90.50;;;;;;5073859;28;20387;-70
2022/05/23 08:56:57;;;;;;;7.30;6.80;;;22.40;92.20;;;;;;5074083;28;20729;-70
2022/05/23 08:59:27;;;;;;;5.70;4.87;;;22.50;90.30;;;;;;5073654;28;20422;-71
2022/05/23 09:02:03;;;;;;;5.43;5.23;;;22.70;89.30;;;;;;5073038;28;20825;-70
2022/05/23 09:04:58;;;;;;;6.43;6.10;;;22.90;90.10;;;;;;5072398;28;20422;-71
2022/05/23 09:07:44;;;;;;;6.77;4.97;;;23.10;90.80;;;;;;5073531;28;20396;-71
2022/05/23 09:10:22;;;;;;;6.13;5.73;;;23.40;89.20;;;;;;5073857;28;20864;-70
2022/05/23 09:12:53;;;;;;;6.60;6.30;;;23.50;86.50;;;;;;5073920;28;20504;-71
2022/05/23 09:15:21;;;;;;;6.60;6.07;;;23.70;89.00;;;;;;5073603;28;20388;-72
2022/05/23 09:17:53;;;;;;;5.80;5.30;;;23.90;90.50;;;;;;5072506;28;20824;-70
2022/05/23 09:20:27;;;;;;;6.63;6.30;;;24.00;85.10;;;;;;5073902;28;20552;-72
2022/05/23 09:22:58;;;;;;;6.30;5.57;;;24.00;85.00;;;;;;5074025;28;20407;-70
2022/05/23 09:25:26;;;;;;;6.30;5.80;;;24.10;83.80;;;;;;5073147;28;20415;-71
2022/05/23 09:28:14;;;;;;;7.40;6.90;;;24.00;83.30;;;;;;5073356;28;20407;-70
2022/05/23 09:30:42;;;;;;;5.13;4.87;;;23.80;82.00;;;;;;5073255;28;20632;-70
2022/05/23 09:33:15;;;;;;;6.50;6.10;;;23.80;85.00;;;;;;5073561;28;20412;-70
2022/05/23 09:35:46;;;;;;;7.10;6.60;;;23.80;84.50;;;;;;5072721;28;20407;-70
2022/05/23 09:38:20;;;;;;;6.00;5.70;;;23.80;86.10;;;;;;5072217;28;20412;-70
2022/05/23 09:40:47;;;;;;;4.77;4.33;;;24.00;82.50;;;;;;5073436;28;20781;-70
2022/05/23 09:49:05;;;;;;;5.63;5.23;;;24.30;80.60;;;;;;5073478;28;20976;-71
2022/05/23 09:51:31;;;;;;;6.07;5.50;;;24.50;82.90;;;;;;5072803;28;20455;-71
2022/05/23 09:54:02;;;;;;;5.33;5.00;;;24.70;81.40;;;;;;5073491;28;20435;-70
2022/05/23 09:56:34;;;;;;;7.77;7.20;;;24.90;81.60;;;;;;5072493;28;20867;-71
2022/05/23 09:59:02;;;;;;;4.40;4.10;;;25.10;81.00;;;;;;5072822;28;20430;-71
2022/05/23 10:01:31;;;;;;;4.73;4.27;;;25.10;80.10;;;;;;5072447;28;20925;-71
2022/05/23 10:03:57;;;;;;;6.60;6.30;;;25.00;78.90;;;;;;5072967;28;20434;-70
2022/05/23 10:06:35;;;;;;;6.13;4.90;;;25.10;79.40;;;;;;5072605;28;20407;-71
2022/05/23 10:09:01;;;;;;;4.40;4.10;;;25.20;80.90;;;;;;5072771;28;20425;-70
2022/05/23 10:11:30;;;;;;;5.00;4.53;;;25.10;80.20;;;;;;5071377;28;20451;-71
2022/05/23 10:14:03;;;;;;;5.10;4.80;;;25.30;79.70;;;;;;5072456;28;20423;-70
2022/05/23 10:16:42;;;;;;;4.87;4.63;;;25.30;76.80;;;;;;5072534;28;20410;-70
2022/05/23 10:19:10;;;;;;;5.53;5.03;;;25.30;79.80;;;;;;5072606;28;20426;-70
2022/05/23 10:21:39;;;;;;;4.30;4.10;;;25.40;78.40;;;;;;5072367;28;21011;-70
2022/05/23 10:24:16;;;;;;;5.83;5.47;;;25.20;75.80;;;;;;5072835;28;20509;-70
2022/05/23 10:26:52;;;;;;;4.60;4.20;;;25.10;76.50;;;;;;5072146;28;20407;-70
2022/05/23 10:30:00;;;;;;;4.70;3.90;;;25.10;77.20;;;;;;5072885;28;20425;-70
2022/05/23 10:32:38;;;;;;;4.27;3.43;;;25.30;77.70;;;;;;5068608;28;20463;-71
2022/05/23 10:35:29;;;;;;;7.17;6.70;;;25.20;74.50;;;;;;5072697;28;20587;-70
2022/05/23 10:42:07;;;;;;;5.93;5.07;;;25.10;76.70;;;;;;5072806;28;20403;-70
2022/05/23 10:43:47;;;;;;;4.77;4.00;;;25.20;78.50;;;;;;5072083;28;20439;-71
2022/05/23 10:46:14;;;;;;;3.40;3.20;;;25.40;76.00;;;;;;5071979;28;20448;-70
2022/05/23 10:49:11;;;;;;;4.90;4.60;;;25.70;73.90;;;;;;5071792;28;20418;-70
2022/05/23 10:51:42;;;;;;;3.90;3.60;;;25.90;78.70;;;;;;5071451;28;20529;-69
2022/05/23 10:54:27;;;;;;;4.07;3.77;;;26.10;75.00;;;;;;5072033;28;20407;-69
2022/05/23 11:00:07;;;;;;;5.70;5.20;;;26.00;74.40;;;;;;5060206;28;20443;-71
2022/05/23 11:02:55;;;;;;;7.60;3.80;;;25.90;71.60;;;;;;5051177;28;20440;-69
2022/05/23 11:05:53;;;;;;;3.77;3.53;;;25.70;72.80;;;;;;5051193;28;20423;-69
2022/05/23 11:08:30;;;;;;;4.07;3.83;;;25.70;72.00;;;;;;5050364;28;20989;-71
2022/05/23 11:11:20;;;;;;;4.90;4.40;;;25.70;77.60;;;;;;5051208;28;20726;-69
2022/05/23 11:14:32;;;;;;;4.33;4.03;;;25.90;76.00;;;;;;5051718;28;20446;-70
2022/05/23 11:17:27;;;;;;;4.50;4.20;;;26.10;74.30;;;;;;5032517;28;20405;-70
2022/05/23 11:20:12;;;;;;;4.43;4.20;;;25.90;70.80;;;;;;5044786;28;20436;-69
2022/05/23 11:22:45;;;;;;;4.60;4.20;;;25.90;74.30;;;;;;5051627;28;20412;-70
2022/05/23 11:25:13;;;;;;;5.77;4.60;;;26.10;75.00;;;;;;5053453;28;20424;-70
2022/05/23 11:36:09;;;;;;;7.80;4.90;;;25.90;73.70;;;;;;5051671;28;20499;-72
2022/05/23 11:38:42;;;;;;;5.00;4.60;;;26.20;76.30;;;;;;5053929;28;20485;-73
2022/05/23 11:41:26;;;;;;;5.17;4.77;;;26.10;74.90;;;;;;5047323;28;20436;-73
2022/05/23 11:43:52;;;;;;;4.83;4.43;;;26.10;75.40;;;;;;5030957;28;20405;-73
2022/05/23 11:46:47;;;;;;;4.77;4.50;;;26.10;74.90;;;;;;5055738;28;20510;-72
2022/05/23 11:49:44;;;;;;;4.63;4.33;;;26.10;76.50;;;;;;5051804;28;20223;-72
2022/05/23 11:52:24;;;;;;;4.03;3.50;;;25.80;75.70;;;;;;5050067;28;20476;-73
2022/05/23 11:54:51;;;;;;;5.60;5.10;;;25.80;77.70;;;;;;5053867;28;21041;-72
2022/05/23 11:57:38;;;;;;;6.40;6.00;;;25.90;77.60;;;;;;5050970;28;20428;-73
2022/05/23 12:00:36;;;;;;;4.70;4.30;;;26.10;76.70;;;;;;5063828;28;20497;-72
2022/05/23 12:03:08;;;;;;;4.80;4.40;;;26.10;76.00;;;;;;5068801;28;20843;-72
2022/05/23 12:05:35;;;;;;;5.40;4.40;;;26.10;77.80;;;;;;5056481;28;20435;-73
2022/05/23 12:08:04;;;;;;;4.70;4.40;;;25.90;79.30;;;;;;5057362;28;20463;-72
2022/05/23 12:10:36;;;;;;;4.23;3.93;;;25.90;78.90;;;;;;5051938;28;20523;-73
2022/05/23 12:13:11;;;;;;;4.37;4.07;;;25.80;80.40;;;;;;5035996;28;20437;-73
2022/05/23 12:15:43;;;;;;;3.90;3.70;;;25.50;78.40;;;;;;5035115;28;20498;-73
2022/05/23 12:18:21;;;;;;;4.87;4.57;;;25.20;79.30;;;;;;5056093;28;20451;-73
2022/05/23 12:20:59;;;;;;;7.77;6.07;;;25.10;80.40;;;;;;5055830;28;20478;-72
2022/05/23 12:23:43;;;;;;;8.40;7.90;;;25.20;81.50;;;;;;5058671;28;20522;-73
2022/05/23 12:26:12;;;;;;;4.40;4.00;;;25.30;80.70;;;;;;5046711;28;20478;-73
2022/05/23 12:28:59;;;;;;;4.87;3.87;;;25.30;83.20;;;;;;5055001;28;20450;-73
2022/05/23 12:31:30;;;;;;;6.20;5.40;;;25.40;81.90;;;;;;5035293;28;20815;-73
2022/05/23 12:34:02;;;;;;;6.40;5.90;;;25.60;81.90;;;;;;5049427;28;20424;-73
2022/05/23 12:36:31;;;;;;;12.27;10.73;;;25.30;82.60;;;;;;5059551;28;20439;-73
2022/05/23 12:39:27;;;;;;;5.13;4.83;;;25.40;82.10;;;;;;5045357;28;20449;-73
2022/05/23 12:42:14;;;;;;;5.17;4.67;;;25.30;80.90;;;;;;5046691;28;20424;-72
2022/05/23 12:45:17;;;;;;;5.97;5.57;;;25.30;82.60;;;;;;5054776;28;20994;-73
2022/05/23 12:48:01;;;;;;;4.33;4.03;;;25.40;82.20;;;;;;5063152;28;20931;-69
2022/05/23 12:50:46;;;;;;;4.50;4.17;;;25.40;83.00;;;;;;5054365;28;20435;-68
2022/05/23 12:53:30;;;;;;;4.07;3.77;;;25.60;82.20;;;;;;5054403;28;20462;-69
2022/05/23 12:56:25;;;;;;;4.70;4.33;;;25.70;81.10;;;;;;5053725;28;20416;-69
2022/05/23 12:59:31;;;;;;;4.73;4.33;;;25.80;81.50;;;;;;5053281;28;20432;-69
2022/05/23 13:02:04;;;;;;;4.20;3.90;;;25.80;82.40;;;;;;5048949;28;20440;-70
2022/05/23 13:04:47;;;;;;;4.70;4.30;;;25.90;81.60;;;;;;5065191;28;20446;-69
2022/05/23 13:07:16;;;;;;;6.00;5.60;;;25.80;80.30;;;;;;5060220;28;20443;-70
2022/05/23 13:09:52;;;;;;;4.73;4.33;;;25.60;82.00;;;;;;5058774;28;20443;-69
2022/05/23 13:12:23;;;;;;;4.90;4.60;;;25.30;84.00;;;;;;5056751;28;20474;-70
2022/05/23 13:14:55;;;;;;;6.30;5.70;;;25.10;84.70;;;;;;5054958;28;20515;-70
2022/05/23 13:17:39;;;;;;;5.80;5.20;;;25.20;84.20;;;;;;5052949;28;20431;-70
2022/05/23 13:23:15;;;;;;;5.63;5.30;;;25.10;84.00;;;;;;5053127;28;20757;-70
2022/05/23 13:25:41;;;;;;;5.83;5.23;;;25.00;85.00;;;;;;5052014;28;20470;-70
2022/05/23 13:28:09;;;;;;;7.40;6.30;;;24.80;86.10;;;;;;5053808;28;20412;-70
2022/05/23 13:30:40;;;;;;;6.63;6.23;;;24.80;86.30;;;;;;5053212;28;20416;-70
2022/05/23 13:33:16;;;;;;;6.17;5.77;;;24.80;86.70;;;;;;5053556;28;20763;-70
2022/05/23 13:35:44;;;;;;;6.90;6.30;;;24.70;87.10;;;;;;5052028;28;20478;-69
2022/05/23 13:38:16;;;;;;;6.43;6.00;;;24.70;88.10;;;;;;5052941;28;20495;-69
2022/05/23 13:40:46;;;;;;;7.30;6.80;;;24.60;88.30;;;;;;5066656;28;20493;-70
2022/05/23 13:43:19;;;;;;;6.43;6.03;;;24.60;89.00;;;;;;5073355;28;20507;-68
2022/05/23 13:46:07;;;;;;;7.20;6.60;;;24.50;89.80;;;;;;5045824;28;20441;-69
2022/05/23 13:49:01;;;;;;;6.50;6.10;;;24.40;90.00;;;;;;5032362;28;20433;-68
2022/05/23 13:51:36;;;;;;;7.83;7.10;;;24.40;90.30;;;;;;5034211;28;20547;-72
2022/05/23 13:54:05;;;;;;;7.27;6.63;;;24.50;90.60;;;;;;5052891;28;20443;-69
2022/05/23 13:56:31;;;;;;;7.73;6.40;;;24.50;90.50;;;;;;5051742;28;20427;-72
2022/05/23 13:59:02;;;;;;;6.60;6.03;;;24.30;90.40;;;;;;5048187;28;20920;-72
2022/05/23 14:01:41;;;;;;;7.30;6.60;;;24.20;90.70;;;;;;5051777;28;20580;-72